Buffalo Niagara International Airport

Airport
ICAO code: 
KBUF
IATA Code: 
BUF
Summary
ICAO Region: 
NAM
Territory: 
Location: 
Cheektowaga, Buffalo, New York,
Serving: 
Buffalo
Elevation: 
728 ft
Coordinates: 
Aerial View: 
42° 56' 25.142" N, 78° 43' 48.726" W
Airport WX: 
Lake Effect Snow
Metar
Observation
KBUF 060854Z 19020G32KT 10SM BKN035 OVC043 11/06 A2963 RMK AO2 PK WND 20036/0757 RAE31 SLP037 P0000 60001 T01110056 56020
Station
Buffalo, Greater Buffalo International Airport
Date/Time
2021-12-06 08:54:00
Wind direction
190°
Wind speed
20 kts
Lowest cloud amount
broken clouds
Temperature
11.1°C
Dew point
5.6°C
Humidity
68%
Weather condition
n/a

Description

Airport located in Cheektowaga, Erie County, New York, USA. The airport serves Buffalo, New York as well as Southern Ontario, Canada.

Climatology

Humid Continental climate (Köppen climate classification Dfb) - Variable weather patterns and a large seasonal temperature variance. Summers are often warm and humid with frequent thunderstorms and winters can be very cold with frequent snowfall and persistent snow cover.

Runways

Designator Length Width Surface Rops
14/32 2183 46 ASP Yes/Yes
5/23 2469 46 ASP Yes/Yes
Airport map: 
Aerial View: 

Accidents and Serious Incidents at or in the vicinity of KBUF

SKYbrary Partners:

Safety knowledge contributed by: